createdAt,value
2023-02-22T00:02:27.058Z,5.10
2023-02-22T00:04:55.644Z,4.77
2023-02-22T00:07:24.790Z,4.17
2023-02-22T00:09:54.361Z,4.10
2023-02-22T00:12:22.887Z,4.53
2023-02-22T00:14:52.871Z,3.70
2023-02-22T00:17:21.367Z,3.97
2023-02-22T00:19:50.593Z,4.43
2023-02-22T00:22:20.623Z,4.13
2023-02-22T00:24:50.188Z,3.67
2023-02-22T00:27:20.876Z,3.57
2023-02-22T00:29:49.775Z,3.70
2023-02-22T00:32:18.563Z,3.90
2023-02-22T00:34:48.075Z,3.87
2023-02-22T00:37:16.579Z,3.83
2023-02-22T00:39:47.880Z,3.37
2023-02-22T00:42:17.603Z,3.10
2023-02-22T00:44:47.326Z,3.17
2023-02-22T00:47:15.802Z,3.70
2023-02-22T00:49:44.168Z,2.83
2023-02-22T00:52:12.733Z,3.27
2023-02-22T00:54:41.002Z,2.90
2023-02-22T00:57:09.550Z,3.20
2023-02-22T00:59:37.897Z,2.60
2023-02-22T01:02:09.505Z,3.73
2023-02-22T01:04:37.863Z,2.93
2023-02-22T01:07:06.556Z,3.07
2023-02-22T01:09:35.267Z,2.63
2023-02-22T01:12:03.770Z,2.83
2023-02-22T01:14:32.496Z,3.27
2023-02-22T01:17:01.363Z,3.93
2023-02-22T01:19:32.316Z,3.33
2023-02-22T01:22:00.752Z,2.87
2023-02-22T01:24:28.970Z,2.90
2023-02-22T01:26:57.483Z,3.07
2023-02-22T01:29:25.629Z,3.07
2023-02-22T01:31:55.648Z,3.47
2023-02-22T01:34:26.086Z,3.37
2023-02-22T01:36:56.611Z,2.67
2023-02-22T01:39:25.065Z,2.93
2023-02-22T01:41:54.392Z,3.50
2023-02-22T01:44:29.360Z,3.63
2023-02-22T01:46:59.608Z,3.20
2023-02-22T01:49:31.363Z,5.50
2023-02-22T01:52:03.838Z,4.13
2023-02-22T01:54:34.421Z,4.80
2023-02-22T01:57:07.964Z,3.90
2023-02-22T01:59:58.825Z,4.07
2023-02-22T02:02:28.401Z,3.57
2023-02-22T02:04:59.489Z,4.80
2023-02-22T02:07:30.053Z,3.67
2023-02-22T02:10:00.169Z,4.03
2023-02-22T02:12:31.080Z,3.10
2023-02-22T02:15:21.232Z,3.53
2023-02-22T02:17:51.021Z,3.90
2023-02-22T02:20:25.110Z,3.57
2023-02-22T02:23:01.602Z,2.80
2023-02-22T02:25:49.637Z,3.43
2023-02-22T02:29:02.982Z,3.40
2023-02-22T02:32:12.010Z,3.17
2023-02-22T02:34:50.543Z,3.00
2023-02-22T02:37:23.574Z,3.53
2023-02-22T02:39:58.380Z,3.30
2023-02-22T02:42:34.710Z,2.80
2023-02-22T02:45:10.621Z,2.80
2023-02-22T02:47:43.471Z,3.03
2023-02-22T02:50:17.688Z,3.03
2023-02-22T02:52:48.117Z,3.33
2023-02-22T02:55:18.907Z,2.33
2023-02-22T02:57:47.117Z,3.10
2023-02-22T03:00:23.276Z,3.37
2023-02-22T03:03:08.394Z,2.97
2023-02-22T03:05:54.407Z,2.80
2023-02-22T03:08:30.407Z,2.57
2023-02-22T03:11:06.813Z,2.77
2023-02-22T03:13:47.502Z,3.00
2023-02-22T03:16:19.712Z,2.50
2023-02-22T03:18:56.828Z,2.90
2023-02-22T03:21:33.650Z,2.73
2023-02-22T03:24:08.253Z,3.37
2023-02-22T03:26:40.528Z,3.50
2023-02-22T03:29:11.658Z,2.80
2023-02-22T03:31:43.824Z,2.67
2023-02-22T03:34:17.816Z,3.33
2023-02-22T03:36:49.449Z,2.77
2023-02-22T03:39:20.767Z,3.40
2023-02-22T03:41:51.582Z,2.73
2023-02-22T03:44:23.132Z,2.70
2023-02-22T03:46:54.294Z,2.63
2023-02-22T03:49:32.055Z,2.77
2023-02-22T03:52:01.111Z,3.20
2023-02-22T03:54:30.032Z,3.23
2023-02-22T03:57:02.114Z,3.07
2023-02-22T03:59:30.796Z,3.40
2023-02-22T04:01:59.571Z,3.47
2023-02-22T04:04:29.195Z,3.87
2023-02-22T04:10:09.587Z,3.27
2023-02-22T04:12:39.129Z,4.03
2023-02-22T04:15:10.209Z,4.20
2023-02-22T04:17:39.438Z,3.67
2023-02-22T04:20:10.288Z,4.33
2023-02-22T04:22:38.861Z,5.13
2023-02-22T04:25:07.987Z,4.63
2023-02-22T04:27:36.478Z,4.83
2023-02-22T04:30:05.352Z,4.43
2023-02-22T04:32:33.847Z,5.00
2023-02-22T04:35:02.109Z,5.13
2023-02-22T04:37:34.730Z,4.23
2023-02-22T04:40:07.307Z,4.63
2023-02-22T04:42:36.006Z,4.20
2023-02-22T04:45:05.255Z,5.07
2023-02-22T04:47:33.877Z,5.10
2023-02-22T04:50:02.113Z,5.27
2023-02-22T04:52:31.957Z,4.80
2023-02-22T04:55:00.160Z,5.07
2023-02-22T04:57:28.634Z,4.80
2023-02-22T04:59:57.070Z,4.17
2023-02-22T05:02:25.782Z,4.60
2023-02-22T05:04:54.294Z,4.57
2023-02-22T05:07:22.845Z,4.57
2023-02-22T05:09:52.402Z,5.43
2023-02-22T05:12:21.447Z,5.20
2023-02-22T05:14:49.615Z,5.33
2023-02-22T05:17:18.222Z,4.47
2023-02-22T05:19:47.715Z,6.00
2023-02-22T05:22:16.145Z,4.97
2023-02-22T05:24:44.593Z,5.47
2023-02-22T05:27:14.657Z,5.33
2023-02-22T05:29:42.831Z,6.93
2023-02-22T05:32:12.324Z,6.33
2023-02-22T05:34:40.617Z,6.73
2023-02-22T05:37:09.270Z,6.17
2023-02-22T05:39:39.445Z,6.80
2023-02-22T05:42:07.878Z,6.10
2023-02-22T05:44:37.750Z,6.13
2023-02-22T05:47:06.472Z,7.27
2023-02-22T05:49:34.675Z,7.10
2023-02-22T05:52:03.247Z,7.23
2023-02-22T05:54:31.511Z,6.13
2023-02-22T05:56:59.965Z,7.33
2023-02-22T05:59:29.414Z,8.10
2023-02-22T06:01:59.377Z,8.07
2023-02-22T06:04:27.923Z,8.13
2023-02-22T06:06:56.619Z,8.53
2023-02-22T06:09:24.955Z,8.50
2023-02-22T06:11:54.583Z,8.37
2023-02-22T06:14:24.374Z,7.70
2023-02-22T06:16:56.201Z,9.47
2023-02-22T06:19:26.307Z,7.67
2023-02-22T06:21:56.893Z,9.63
2023-02-22T06:24:25.562Z,9.53
2023-02-22T06:26:57.032Z,8.20
2023-02-22T06:29:25.683Z,7.10
2023-02-22T06:31:54.483Z,7.17
2023-02-22T06:34:23.402Z,7.70
2023-02-22T06:36:53.412Z,7.30
2023-02-22T06:39:22.062Z,6.37
2023-02-22T06:41:51.603Z,8.03
2023-02-22T06:44:20.049Z,7.97
2023-02-22T06:46:51.149Z,7.03
2023-02-22T06:49:20.244Z,8.47
2023-02-22T06:51:49.148Z,7.53
2023-02-22T06:54:18.720Z,7.63
2023-02-22T06:56:47.298Z,7.23
2023-02-22T06:59:15.630Z,7.93
2023-02-22T07:01:45.065Z,7.77
2023-02-22T07:04:13.388Z,7.20
2023-02-22T07:06:46.953Z,7.27
2023-02-22T07:09:15.672Z,6.47
2023-02-22T07:11:45.892Z,6.10
2023-02-22T07:14:14.204Z,5.17
2023-02-22T07:16:42.793Z,6.83
2023-02-22T07:19:11.042Z,6.93
2023-02-22T07:21:39.846Z,6.73
2023-02-22T07:24:08.552Z,7.53
2023-02-22T07:26:40.734Z,5.83
2023-02-22T07:29:11.373Z,7.40
2023-02-22T07:31:40.610Z,6.87
2023-02-22T07:34:08.822Z,5.73
2023-02-22T07:36:37.318Z,6.73
2023-02-22T07:39:08.853Z,6.13
2023-02-22T07:41:37.443Z,6.43
2023-02-22T07:44:05.981Z,6.47
2023-02-22T07:46:35.955Z,6.27
2023-02-22T07:49:04.217Z,6.83
2023-02-22T07:51:32.819Z,5.53
2023-02-22T07:54:01.147Z,5.33
2023-02-22T07:56:29.715Z,6.27
2023-02-22T07:58:58.100Z,5.90
2023-02-22T08:01:26.645Z,5.27
2023-02-22T08:03:56.398Z,6.67
2023-02-22T08:06:25.940Z,6.13
2023-02-22T08:08:54.230Z,5.47
2023-02-22T08:11:22.906Z,6.17
2023-02-22T08:13:51.162Z,5.20
2023-02-22T08:16:19.644Z,6.53
2023-02-22T08:18:47.935Z,5.27
2023-02-22T08:21:18.586Z,5.40
2023-02-22T08:23:51.726Z,4.83
2023-02-22T08:26:20.877Z,4.93
2023-02-22T08:28:49.937Z,5.77
2023-02-22T08:31:19.002Z,6.10
2023-02-22T08:33:49.932Z,5.13
2023-02-22T08:36:19.900Z,5.80
2023-02-22T08:38:48.132Z,5.87
2023-02-22T08:41:16.992Z,4.70
2023-02-22T08:43:45.474Z,4.10
2023-02-22T08:46:13.969Z,4.10
2023-02-22T08:48:51.052Z,5.17
2023-02-22T08:51:21.745Z,4.67
2023-02-22T08:53:50.202Z,4.70
2023-02-22T08:56:18.994Z,3.93
2023-02-22T08:58:47.323Z,4.03
2023-02-22T09:01:22.032Z,3.90
2023-02-22T09:03:59.974Z,4.27
2023-02-22T09:06:30.125Z,3.33
2023-02-22T09:08:58.636Z,3.07
2023-02-22T09:11:27.293Z,3.70
2023-02-22T09:13:55.709Z,3.67
2023-02-22T09:16:24.352Z,3.70
2023-02-22T09:18:52.618Z,4.20
2023-02-22T09:21:21.211Z,2.97
2023-02-22T09:23:50.846Z,2.97
2023-02-22T09:26:19.351Z,3.33
2023-02-22T09:28:47.635Z,3.40
2023-02-22T09:31:16.612Z,3.43
2023-02-22T09:33:47.416Z,3.27
2023-02-22T09:36:16.321Z,2.83
2023-02-22T09:38:44.844Z,2.80
2023-02-22T09:41:20.062Z,2.67
2023-02-22T09:43:57.358Z,2.13
2023-02-22T09:46:31.726Z,2.20
2023-02-22T09:49:05.277Z,2.47
2023-02-22T09:51:40.145Z,2.37
2023-02-22T09:54:18.643Z,3.00
2023-02-22T09:56:51.497Z,2.87
2023-02-22T09:59:27.014Z,3.03
2023-02-22T10:02:06.692Z,2.47
2023-02-22T10:04:42.915Z,2.43
2023-02-22T10:07:19.484Z,3.20
2023-02-22T10:09:49.903Z,2.40
2023-02-22T10:12:29.522Z,3.57
2023-02-22T10:15:22.440Z,2.70
2023-02-22T10:18:03.350Z,2.80
2023-02-22T10:20:43.710Z,2.47
2023-02-22T10:23:23.161Z,2.83
2023-02-22T10:25:57.414Z,2.27
2023-02-22T10:28:32.009Z,2.03
2023-02-22T10:31:05.116Z,2.33
2023-02-22T10:33:37.859Z,2.87
2023-02-22T10:36:07.737Z,4.00
2023-02-22T10:38:39.189Z,2.83
2023-02-22T10:41:21.771Z,3.33
2023-02-22T10:43:51.600Z,4.20
2023-02-22T10:46:23.234Z,2.87
2023-02-22T10:48:55.489Z,2.47
2023-02-22T10:51:24.779Z,1.70
2023-02-22T10:54:01.024Z,2.53
2023-02-22T10:56:29.560Z,2.80
2023-02-22T10:59:02.569Z,2.43
2023-02-22T11:01:37.088Z,2.37
2023-02-22T11:04:12.539Z,2.70
2023-02-22T11:06:42.634Z,2.23
2023-02-22T11:09:17.949Z,5.53
2023-02-22T11:11:48.439Z,3.03
2023-02-22T11:14:29.014Z,2.63
2023-02-22T11:16:59.250Z,3.17
2023-02-22T11:19:29.152Z,2.07
2023-02-22T11:21:59.064Z,2.40
2023-02-22T11:24:37.367Z,2.20
2023-02-22T11:27:25.314Z,1.83
2023-02-22T11:29:56.810Z,1.70
2023-02-22T11:32:28.146Z,2.47
2023-02-22T11:35:20.970Z,2.03
2023-02-22T11:37:49.234Z,2.00
2023-02-22T11:40:22.678Z,2.40
2023-02-22T11:43:12.207Z,3.03
2023-02-22T11:46:02.206Z,1.80
2023-02-22T11:48:34.778Z,3.03
2023-02-22T11:51:21.939Z,2.23
2023-02-22T11:54:07.200Z,4.77
2023-02-22T11:56:40.935Z,2.50
2023-02-22T11:59:21.172Z,2.67
2023-02-22T12:01:55.995Z,2.57
2023-02-22T12:04:52.336Z,2.10
2023-02-22T12:07:39.444Z,2.37
2023-02-22T12:10:22.813Z,2.13
2023-02-22T12:13:04.056Z,2.37
2023-02-22T12:15:37.530Z,1.70
2023-02-22T12:18:15.970Z,2.10
2023-02-22T12:20:47.904Z,2.50
2023-02-22T12:23:22.702Z,2.10
2023-02-22T12:26:00.998Z,1.80
2023-02-22T12:28:34.631Z,2.30
2023-02-22T12:31:20.839Z,2.23
2023-02-22T12:33:56.524Z,1.50
2023-02-22T12:36:29.281Z,1.17
2023-02-22T12:39:07.583Z,2.30
2023-02-22T12:41:40.394Z,2.40
2023-02-22T12:44:17.346Z,1.83
2023-02-22T12:46:50.110Z,1.97
2023-02-22T12:49:27.262Z,2.07
2023-02-22T12:52:09.552Z,1.97
2023-02-22T12:54:56.182Z,1.97
2023-02-22T12:57:32.564Z,1.77
2023-02-22T13:00:04.588Z,1.90
2023-02-22T13:02:38.453Z,1.73
2023-02-22T13:05:15.654Z,3.43
2023-02-22T13:08:00.527Z,1.97
2023-02-22T13:10:38.953Z,2.23
2023-02-22T13:13:14.113Z,2.20
2023-02-22T13:15:48.935Z,2.23
2023-02-22T13:18:25.186Z,2.50
2023-02-22T13:21:01.727Z,2.20
2023-02-22T13:23:40.079Z,2.10
2023-02-22T13:26:15.280Z,1.80
2023-02-22T13:28:47.606Z,2.03
2023-02-22T13:31:31.415Z,2.27
2023-02-22T13:34:30.676Z,1.80
2023-02-22T13:37:22.564Z,1.70
2023-02-22T13:40:08.138Z,2.00
2023-02-22T13:42:53.530Z,1.73
2023-02-22T13:46:01.122Z,2.10
2023-02-22T13:48:52.902Z,2.63
2023-02-22T13:51:39.068Z,1.90
2023-02-22T13:54:15.037Z,1.93
2023-02-22T13:56:44.440Z,1.70
2023-02-22T13:59:26.379Z,2.33
2023-02-22T14:01:55.360Z,1.90
2023-02-22T14:04:38.802Z,2.13
2023-02-22T14:07:55.003Z,1.97
2023-02-22T14:10:47.787Z,2.17
2023-02-22T14:13:18.360Z,2.07
2023-02-22T14:16:18.201Z,1.80
2023-02-22T14:18:50.374Z,2.20
2023-02-22T14:21:21.121Z,2.23
2023-02-22T14:23:51.743Z,1.80
2023-02-22T14:26:27.748Z,2.23
2023-02-22T14:28:59.678Z,1.97
2023-02-22T14:31:36.824Z,2.10
2023-02-22T14:34:09.340Z,3.07
2023-02-22T14:36:47.715Z,1.97
2023-02-22T14:39:25.275Z,2.47
2023-02-22T14:42:01.606Z,2.63
2023-02-22T14:44:34.319Z,2.67
2023-02-22T14:47:06.828Z,2.50
2023-02-22T14:49:39.544Z,3.20
2023-02-22T14:52:18.484Z,2.73
2023-02-22T14:54:59.826Z,2.50
2023-02-22T14:57:39.038Z,3.20
2023-02-22T15:00:19.892Z,3.67
2023-02-22T15:02:49.594Z,2.73
2023-02-22T15:05:20.905Z,3.73
2023-02-22T15:07:54.217Z,2.93
2023-02-22T15:10:27.269Z,5.40
2023-02-22T15:13:09.746Z,4.60
2023-02-22T15:15:41.021Z,3.77
2023-02-22T15:18:23.067Z,3.43
2023-02-22T15:20:56.426Z,3.60
2023-02-22T15:23:33.233Z,4.00
2023-02-22T15:26:02.974Z,3.70
2023-02-22T15:28:32.929Z,3.37
2023-02-22T15:31:18.771Z,4.77
2023-02-22T15:33:47.515Z,3.43
2023-02-22T15:36:17.702Z,4.00
2023-02-22T15:38:51.188Z,3.90
2023-02-22T15:41:31.232Z,2.63
2023-02-22T15:44:17.688Z,3.50
2023-02-22T15:46:51.069Z,3.67
2023-02-22T15:49:23.360Z,4.47
2023-02-22T15:52:06.114Z,4.53
2023-02-22T15:54:50.692Z,4.80
2023-02-22T15:57:21.114Z,5.10
2023-02-22T15:59:54.050Z,4.53
2023-02-22T16:02:32.350Z,5.60
2023-02-22T16:05:04.212Z,6.70
2023-02-22T16:07:32.685Z,5.60
2023-02-22T16:10:08.080Z,7.23
2023-02-22T16:12:37.056Z,7.03
2023-02-22T16:15:18.456Z,7.40
2023-02-22T16:18:01.697Z,7.50
2023-02-22T16:20:36.230Z,7.57
2023-02-22T16:23:26.122Z,7.80
2023-02-22T16:26:06.310Z,8.00
2023-02-22T16:28:35.924Z,7.70
2023-02-22T16:31:06.420Z,8.17
2023-02-22T16:33:34.872Z,7.53
2023-02-22T16:36:08.341Z,7.03
2023-02-22T16:38:39.335Z,7.20
2023-02-22T16:41:08.742Z,7.00
2023-02-22T16:43:37.309Z,7.70
2023-02-22T16:46:08.269Z,8.63
2023-02-22T16:48:38.214Z,9.50
2023-02-22T16:51:17.768Z,8.03
2023-02-22T16:53:46.902Z,7.73
2023-02-22T16:56:18.312Z,7.87
2023-02-22T16:58:47.669Z,7.93
2023-02-22T17:01:18.100Z,9.27
2023-02-22T17:03:47.828Z,8.90
2023-02-22T17:06:16.694Z,8.03
2023-02-22T17:08:45.327Z,8.80
2023-02-22T17:11:15.859Z,9.90
2023-02-22T17:13:45.667Z,9.90
2023-02-22T17:16:16.285Z,13.30
2023-02-22T17:18:46.928Z,12.50
2023-02-22T17:21:16.654Z,12.30
2023-02-22T17:23:46.190Z,11.63
2023-02-22T17:26:15.911Z,11.60
2023-02-22T17:28:44.466Z,10.30
2023-02-22T17:31:21.684Z,8.50
2023-02-22T17:33:52.324Z,10.17
2023-02-22T17:36:21.084Z,10.27
2023-02-22T17:38:50.074Z,8.87
2023-02-22T17:41:18.763Z,7.93
2023-02-22T17:43:47.144Z,6.57
2023-02-22T17:46:16.151Z,7.60
2023-02-22T17:48:44.626Z,8.37
2023-02-22T17:51:14.954Z,8.50
2023-02-22T17:53:43.193Z,7.20
2023-02-22T17:56:14.385Z,8.93
2023-02-22T17:58:42.977Z,7.03
2023-02-22T18:01:21.208Z,7.87
2023-02-22T18:03:49.747Z,7.37
2023-02-22T18:06:24.840Z,7.30
2023-02-22T18:08:56.232Z,7.27
2023-02-22T18:11:27.112Z,6.90
2023-02-22T18:13:55.948Z,5.50
2023-02-22T18:16:25.544Z,5.93
2023-02-22T18:18:54.225Z,7.50
2023-02-22T18:21:26.759Z,6.87
2023-02-22T18:23:55.307Z,6.57
2023-02-22T18:26:25.479Z,6.57
2023-02-22T18:28:54.721Z,6.37
2023-02-22T18:31:24.229Z,6.70
2023-02-22T18:33:53.958Z,7.50
2023-02-22T18:36:24.102Z,5.73
2023-02-22T18:38:53.795Z,7.13
2023-02-22T18:41:26.262Z,7.20
2023-02-22T18:43:57.588Z,7.20
2023-02-22T18:46:26.227Z,6.47
2023-02-22T18:48:56.472Z,6.90
2023-02-22T18:51:27.363Z,7.43
2023-02-22T18:54:00.556Z,6.63
2023-02-22T18:56:30.836Z,7.00
2023-02-22T18:59:00.795Z,5.40
2023-02-22T19:01:31.315Z,5.83
2023-02-22T19:04:01.518Z,6.23
2023-02-22T19:06:31.646Z,5.90
2023-02-22T19:09:04.667Z,6.90
2023-02-22T19:11:33.260Z,9.53
2023-02-22T19:14:06.337Z,10.67
2023-02-22T19:16:34.992Z,9.20
2023-02-22T19:19:03.744Z,8.10
2023-02-22T19:21:34.063Z,10.17
2023-02-22T19:24:02.779Z,10.30
2023-02-22T19:26:32.057Z,9.13
2023-02-22T19:29:05.429Z,8.97
2023-02-22T19:31:35.578Z,9.83
2023-02-22T19:34:08.799Z,8.87
2023-02-22T19:36:40.590Z,9.20
2023-02-22T19:39:09.003Z,9.47
2023-02-22T19:41:38.170Z,9.13
2023-02-22T19:44:07.336Z,8.67
2023-02-22T19:46:35.898Z,8.93
2023-02-22T19:49:05.091Z,9.67
2023-02-22T19:51:34.666Z,9.13
2023-02-22T19:54:06.147Z,9.37
2023-02-22T19:56:35.539Z,10.20
2023-02-22T19:59:10.846Z,8.80
2023-02-22T20:01:39.374Z,9.63
2023-02-22T20:04:09.429Z,8.53
2023-02-22T20:06:40.281Z,7.90
2023-02-22T20:09:13.366Z,9.23
2023-02-22T20:11:41.919Z,9.83
2023-02-22T20:14:11.466Z,7.90
2023-02-22T20:16:40.170Z,7.97
2023-02-22T20:19:08.515Z,7.90
2023-02-22T20:21:37.496Z,7.87
2023-02-22T20:24:11.940Z,7.93
2023-02-22T20:26:40.673Z,6.80
2023-02-22T20:29:10.343Z,8.20
2023-02-22T20:31:41.214Z,7.20
2023-02-22T20:34:10.774Z,6.20
2023-02-22T20:36:42.433Z,6.77
2023-02-22T20:39:14.192Z,6.73
2023-02-22T20:41:46.266Z,6.80
2023-02-22T20:44:15.972Z,7.47
2023-02-22T20:46:45.104Z,6.87
2023-02-22T20:49:17.078Z,6.33
2023-02-22T20:51:46.778Z,5.93
2023-02-22T20:54:17.001Z,6.27
2023-02-22T20:56:48.187Z,6.97
2023-02-22T20:59:18.857Z,6.67
2023-02-22T21:01:49.989Z,7.47
2023-02-22T21:04:18.431Z,6.80
2023-02-22T21:06:47.719Z,6.87
2023-02-22T21:09:19.632Z,6.20
2023-02-22T21:11:49.032Z,5.27
2023-02-22T21:14:19.854Z,7.00
2023-02-22T21:16:50.887Z,7.20
2023-02-22T21:19:25.544Z,6.57
2023-02-22T21:21:58.931Z,6.80
2023-02-22T21:24:29.804Z,7.07
2023-02-22T21:26:59.389Z,7.93
2023-02-22T21:29:29.057Z,8.27
2023-02-22T21:31:58.266Z,8.23
2023-02-22T21:34:26.851Z,8.20
2023-02-22T21:36:55.352Z,8.47
2023-02-22T21:39:28.309Z,7.97
2023-02-22T21:42:02.256Z,8.17
2023-02-22T21:44:31.139Z,7.40
2023-02-22T21:47:00.215Z,8.73
2023-02-22T21:49:28.868Z,7.17
2023-02-22T21:51:57.582Z,7.17
2023-02-22T21:54:27.947Z,7.63
2023-02-22T21:56:59.787Z,8.67
2023-02-22T21:59:28.022Z,7.00
2023-02-22T22:01:57.340Z,6.23
2023-02-22T22:04:29.734Z,6.93
2023-02-22T22:07:00.317Z,6.90
2023-02-22T22:09:33.288Z,7.03
2023-02-22T22:12:05.197Z,7.00
2023-02-22T22:14:34.974Z,6.27
2023-02-22T22:17:06.964Z,7.27
2023-02-22T22:19:39.127Z,6.43
2023-02-22T22:22:07.963Z,8.03
2023-02-22T22:24:36.364Z,8.53
2023-02-22T22:27:09.732Z,8.33
2023-02-22T22:29:37.995Z,7.67
2023-02-22T22:32:07.602Z,6.90
2023-02-22T22:34:37.870Z,7.03
2023-02-22T22:37:07.724Z,7.67
2023-02-22T22:39:35.977Z,6.60
2023-02-22T22:42:06.400Z,7.00
2023-02-22T22:44:41.875Z,7.53
2023-02-22T22:47:12.466Z,7.13
2023-02-22T22:49:42.540Z,7.17
2023-02-22T22:52:14.283Z,7.63
2023-02-22T22:54:43.410Z,6.20
2023-02-22T22:57:13.471Z,7.37
2023-02-22T22:59:41.647Z,6.27
2023-02-22T23:02:11.450Z,6.63
2023-02-22T23:04:39.738Z,6.73
2023-02-22T23:07:08.218Z,7.07
2023-02-22T23:09:38.788Z,6.37
2023-02-22T23:12:09.701Z,7.27
2023-02-22T23:14:44.179Z,7.23
2023-02-22T23:17:16.060Z,6.07
2023-02-22T23:19:45.862Z,6.90
2023-02-22T23:22:15.185Z,5.83
2023-02-22T23:24:44.599Z,7.07
2023-02-22T23:27:13.638Z,6.87
2023-02-22T23:29:46.529Z,6.67
2023-02-22T23:32:15.357Z,6.20
2023-02-22T23:34:43.971Z,5.40
2023-02-22T23:37:14.138Z,5.93
2023-02-22T23:39:42.643Z,4.40
2023-02-22T23:42:11.113Z,5.57
2023-02-22T23:44:40.228Z,5.77
2023-02-22T23:47:10.435Z,5.57
2023-02-22T23:49:38.928Z,5.73
2023-02-22T23:52:08.940Z,5.40
2023-02-22T23:54:43.872Z,5.20
2023-02-22T23:57:12.559Z,5.83
2023-02-22T23:59:40.902Z,5.73
